createdAt,value
2022-08-08T00:00:54.452Z,101350.60
2022-08-08T00:03:31.808Z,101350.20
2022-08-08T00:07:01.326Z,101353.80
2022-08-08T00:10:04.319Z,101354.60
2022-08-08T00:14:16.380Z,101350.00
2022-08-08T00:16:27.308Z,101336.80
2022-08-08T00:19:29.755Z,101330.80
2022-08-08T00:22:31.029Z,101328.00
2022-08-08T00:25:13.866Z,101330.60
2022-08-08T00:27:43.365Z,101327.80
2022-08-08T00:30:15.554Z,101330.60
2022-08-08T00:32:57.647Z,101323.40
2022-08-08T00:36:03.062Z,101325.80
2022-08-08T00:40:25.104Z,101326.80
2022-08-08T00:42:51.312Z,101323.80
2022-08-08T00:45:59.718Z,101325.80
2022-08-08T00:48:59.049Z,101324.00
2022-08-08T00:51:38.317Z,101323.00
2022-08-08T00:54:45.848Z,101325.00
2022-08-08T00:57:34.527Z,101329.00
2022-08-08T01:00:22.807Z,101324.40
2022-08-08T01:04:00.714Z,101324.20
2022-08-08T01:07:10.662Z,101324.40
2022-08-08T01:10:27.586Z,101321.40
2022-08-08T01:13:52.997Z,101324.60
2022-08-08T01:17:19.433Z,101323.60
2022-08-08T01:20:13.176Z,101322.80
2022-08-08T01:24:05.979Z,101320.20
2022-08-08T01:27:10.869Z,101316.20
2022-08-08T01:30:14.397Z,101319.20
2022-08-08T01:33:23.827Z,101316.60
2022-08-08T01:36:48.478Z,101313.40
2022-08-08T01:39:55.461Z,101308.40
2022-08-08T01:42:58.704Z,101301.60
2022-08-08T01:45:56.750Z,101304.80
2022-08-08T01:48:43.765Z,101306.80
2022-08-08T01:52:44.381Z,101308.20
2022-08-08T01:55:45.512Z,101306.20
2022-08-08T01:58:46.997Z,101302.60
2022-08-08T02:01:59.539Z,101306.20
2022-08-08T02:05:01.712Z,101303.80
2022-08-08T02:07:55.479Z,101312.20
2022-08-08T02:11:07.413Z,101313.00
2022-08-08T02:14:12.487Z,101315.40
2022-08-08T02:17:10.539Z,101317.60
2022-08-08T02:20:09.247Z,101311.80
2022-08-08T02:22:58.674Z,101319.80
2022-08-08T02:25:46.906Z,101318.80
2022-08-08T02:29:08.112Z,101324.60
2022-08-08T02:32:32.751Z,101325.60
2022-08-08T02:36:02.476Z,101329.40
2022-08-08T02:38:52.087Z,101330.80
2022-08-08T02:42:13.921Z,101329.00
2022-08-08T02:44:59.173Z,101329.60
2022-08-08T02:47:55.052Z,101328.80
2022-08-08T02:51:29.687Z,101331.40
2022-08-08T02:54:55.373Z,101332.60
2022-08-08T02:58:14.882Z,101333.40
2022-08-08T03:01:15.194Z,101330.40
2022-08-08T03:05:02.556Z,101335.80
2022-08-08T03:08:02.000Z,101332.40
2022-08-08T03:11:31.881Z,101334.00
2022-08-08T03:15:57.990Z,101337.40
2022-08-08T03:17:39.829Z,101335.60
2022-08-08T03:20:11.511Z,101334.80
2022-08-08T03:22:56.125Z,101336.40
2022-08-08T03:25:34.174Z,101338.20
2022-08-08T03:28:19.045Z,101337.80
2022-08-08T03:30:49.178Z,101339.80
2022-08-08T03:33:56.859Z,101345.80
2022-08-08T03:36:27.875Z,101339.00
2022-08-08T03:39:07.483Z,101334.60
2022-08-08T03:42:26.957Z,101339.80
2022-08-08T03:44:35.150Z,101342.60
2022-08-08T03:47:14.059Z,101345.20
2022-08-08T03:50:00.564Z,101347.00
2022-08-08T03:52:35.428Z,101347.20
2022-08-08T03:55:55.133Z,101347.60
2022-08-08T03:58:33.739Z,101349.80
2022-08-08T04:01:02.746Z,101351.40
2022-08-08T04:03:59.210Z,101352.80
2022-08-08T04:06:33.461Z,101353.60
2022-08-08T04:09:11.446Z,101351.40
2022-08-08T04:11:57.701Z,101349.40
2022-08-08T04:14:34.123Z,101347.20
2022-08-08T04:17:07.085Z,101355.20
2022-08-08T04:19:43.942Z,101360.20
2022-08-08T04:22:11.748Z,101359.60
2022-08-08T04:24:44.468Z,101353.80
2022-08-08T04:27:42.586Z,101362.20
2022-08-08T04:30:18.219Z,101363.00
2022-08-08T04:32:50.505Z,101361.20
2022-08-08T04:35:22.853Z,101364.20
2022-08-08T04:37:53.869Z,101361.40
2022-08-08T04:40:25.838Z,101361.20
2022-08-08T04:43:00.841Z,101361.20
2022-08-08T04:45:36.049Z,101362.40
2022-08-08T04:48:05.428Z,101361.40
2022-08-08T04:50:38.962Z,101364.60
2022-08-08T04:54:37.404Z,101365.60
2022-08-08T04:56:07.080Z,101360.20
2022-08-08T04:58:35.820Z,101360.60
2022-08-08T05:01:09.278Z,101361.40
2022-08-08T05:04:08.406Z,101365.20
2022-08-08T05:06:29.571Z,101369.60
2022-08-08T05:09:02.188Z,101373.20
2022-08-08T05:11:38.571Z,101371.40
2022-08-08T05:14:08.985Z,101369.60
2022-08-08T05:16:54.854Z,101370.40
2022-08-08T05:20:11.293Z,101380.40
2022-08-08T05:22:18.341Z,101380.80
2022-08-08T05:24:49.485Z,101380.00
2022-08-08T05:27:20.093Z,101382.40
2022-08-08T05:29:51.858Z,101388.20
2022-08-08T05:32:26.911Z,101385.80
2022-08-08T05:35:01.650Z,101388.20
2022-08-08T05:37:52.236Z,101384.20
2022-08-08T05:40:28.028Z,101386.20
2022-08-08T05:43:38.193Z,101387.40
2022-08-08T05:46:08.111Z,101397.60
2022-08-08T05:48:39.002Z,101400.00
2022-08-08T05:51:14.794Z,101398.20
2022-08-08T05:54:26.265Z,101401.00
2022-08-08T05:56:42.251Z,101404.60
2022-08-08T05:59:58.953Z,101401.80
2022-08-08T06:02:43.951Z,101401.60
2022-08-08T06:05:33.595Z,101406.20
2022-08-08T06:08:14.514Z,101405.80
2022-08-08T06:10:59.216Z,101411.00
2022-08-08T06:13:29.940Z,101408.60
2022-08-08T06:16:03.710Z,101413.00
2022-08-08T06:18:55.438Z,101409.80
2022-08-08T06:21:32.748Z,101412.80
2022-08-08T06:24:27.195Z,101410.00
2022-08-08T06:27:05.711Z,101410.20
2022-08-08T06:29:59.843Z,101413.00
2022-08-08T06:32:32.001Z,101416.00
2022-08-08T06:36:04.944Z,101416.80
2022-08-08T06:38:09.309Z,101412.40
2022-08-08T06:40:48.276Z,101411.20
2022-08-08T06:43:30.774Z,101419.80
2022-08-08T06:46:09.183Z,101418.40
2022-08-08T06:48:42.490Z,101425.40
2022-08-08T06:51:14.163Z,101426.40
2022-08-08T06:53:51.081Z,101432.60
2022-08-08T06:56:26.324Z,101432.40
2022-08-08T06:58:54.592Z,101438.40
2022-08-08T07:02:26.290Z,101437.00
2022-08-08T07:04:52.005Z,101431.60
2022-08-08T07:07:52.622Z,101435.40
2022-08-08T07:10:26.138Z,101434.00
2022-08-08T07:13:06.788Z,101433.80
2022-08-08T07:16:04.341Z,101435.00
2022-08-08T07:19:12.383Z,101429.00
2022-08-08T07:22:11.989Z,101430.20
2022-08-08T07:25:02.367Z,101431.60
2022-08-08T07:27:47.478Z,101434.40
2022-08-08T07:30:29.194Z,101436.80
2022-08-08T07:32:59.627Z,101432.40
2022-08-08T07:35:30.938Z,101443.80
2022-08-08T07:38:09.835Z,101441.40
2022-08-08T07:40:46.754Z,101439.00
2022-08-08T07:43:16.767Z,101439.40
2022-08-08T07:46:17.344Z,101435.80
2022-08-08T07:48:40.867Z,101437.80
2022-08-08T07:51:23.394Z,101440.20
2022-08-08T07:54:31.175Z,101439.80
2022-08-08T07:57:17.089Z,101441.80
2022-08-08T08:00:16.802Z,101445.00
2022-08-08T08:03:20.340Z,101451.20
2022-08-08T08:05:53.655Z,101446.40
2022-08-08T08:08:55.393Z,101437.80
2022-08-08T08:11:33.561Z,101442.20
2022-08-08T08:14:10.710Z,101445.00
2022-08-08T08:16:50.590Z,101442.20
2022-08-08T08:19:19.947Z,101442.60
2022-08-08T08:21:58.223Z,101437.60
2022-08-08T08:24:37.040Z,101441.60
2022-08-08T08:27:09.464Z,101443.20
2022-08-08T08:29:39.093Z,101438.60
2022-08-08T08:32:09.103Z,101440.00
2022-08-08T08:34:43.137Z,101439.00
2022-08-08T08:37:11.866Z,101438.80
2022-08-08T08:40:00.876Z,101440.00
2022-08-08T08:42:35.727Z,101444.80
2022-08-08T08:45:21.817Z,101441.20
2022-08-08T08:47:54.762Z,101443.40
2022-08-08T08:50:33.258Z,101439.00
2022-08-08T08:53:27.728Z,101438.60
2022-08-08T08:56:02.891Z,101436.80
2022-08-08T08:58:46.827Z,101436.80
2022-08-08T09:01:43.770Z,101437.20
2022-08-08T09:04:31.642Z,101438.80
2022-08-08T09:07:12.175Z,101443.20
2022-08-08T09:09:48.282Z,101435.20
2022-08-08T09:12:29.221Z,101432.40
2022-08-08T09:14:59.133Z,101433.20
2022-08-08T09:17:41.653Z,101441.00
2022-08-08T09:21:57.184Z,101429.00
2022-08-08T09:23:11.352Z,101431.40
2022-08-08T09:26:00.648Z,101429.80
2022-08-08T09:28:40.257Z,101430.40
2022-08-08T09:31:56.928Z,101433.00
2022-08-08T09:34:34.282Z,101429.40
2022-08-08T09:37:57.717Z,101430.60
2022-08-08T09:40:10.574Z,101431.60
2022-08-08T09:42:51.401Z,101429.00
2022-08-08T09:45:54.612Z,101423.40
2022-08-08T09:48:42.714Z,101427.40
2022-08-08T09:51:15.131Z,101427.00
2022-08-08T09:53:59.959Z,101429.20
2022-08-08T09:56:41.067Z,101430.00
2022-08-08T10:02:23.277Z,101420.00
2022-08-08T10:04:52.673Z,101424.00
2022-08-08T10:07:20.804Z,101423.00
2022-08-08T10:09:59.861Z,101427.40
2022-08-08T10:12:54.407Z,101424.20
2022-08-08T10:15:28.486Z,101426.60
2022-08-08T10:18:05.795Z,101421.00
2022-08-08T10:20:58.303Z,101420.80
2022-08-08T10:23:42.867Z,101419.80
2022-08-08T10:26:30.744Z,101416.80
2022-08-08T10:29:22.767Z,101414.00
2022-08-08T10:32:16.757Z,101416.80
2022-08-08T10:35:02.040Z,101417.20
2022-08-08T10:37:34.682Z,101413.60
2022-08-08T10:40:16.315Z,101412.40
2022-08-08T10:42:48.411Z,101408.40
2022-08-08T10:45:16.979Z,101403.60
2022-08-08T10:47:55.798Z,101403.60
2022-08-08T10:50:35.251Z,101397.80
2022-08-08T10:53:12.746Z,101396.00
2022-08-08T10:55:46.485Z,101397.40
2022-08-08T10:58:15.621Z,101397.40
2022-08-08T11:00:52.606Z,101396.60
2022-08-08T11:04:01.570Z,101400.20
2022-08-08T11:06:35.692Z,101398.00
2022-08-08T11:09:19.910Z,101394.80
2022-08-08T11:12:05.355Z,101394.40
2022-08-08T11:14:59.932Z,101393.00
2022-08-08T11:17:59.560Z,101397.00
2022-08-08T11:20:27.928Z,101391.80
2022-08-08T11:23:05.530Z,101386.60
2022-08-08T11:25:51.922Z,101389.40
2022-08-08T11:28:29.695Z,101388.80
2022-08-08T11:31:03.955Z,101389.20
2022-08-08T11:33:52.651Z,101384.40
2022-08-08T11:36:27.800Z,101384.40
2022-08-08T11:38:57.953Z,101383.40
2022-08-08T11:41:33.642Z,101381.40
2022-08-08T11:44:03.696Z,101382.80
2022-08-08T11:46:36.923Z,101381.80
2022-08-08T11:49:11.471Z,101378.60
2022-08-08T11:51:50.292Z,101384.20
2022-08-08T11:54:44.591Z,101380.00
2022-08-08T11:57:23.941Z,101378.80
2022-08-08T12:00:05.358Z,101377.60
2022-08-08T12:02:55.319Z,101375.80
2022-08-08T12:05:33.518Z,101373.80
2022-08-08T12:08:02.779Z,101375.80
2022-08-08T12:10:33.632Z,101377.20
2022-08-08T12:13:12.140Z,101379.00
2022-08-08T12:15:51.379Z,101369.20
2022-08-08T12:18:28.630Z,101374.80
2022-08-08T12:20:59.423Z,101365.40
2022-08-08T12:23:43.948Z,101368.80
2022-08-08T12:26:27.480Z,101370.80
2022-08-08T12:29:40.864Z,101370.40
2022-08-08T12:32:17.080Z,101367.00
2022-08-08T12:35:01.264Z,101364.80
2022-08-08T12:37:43.490Z,101366.60
2022-08-08T12:40:56.277Z,101368.20
2022-08-08T12:43:32.838Z,101363.80
2022-08-08T12:46:26.060Z,101367.20
2022-08-08T12:49:25.278Z,101369.80
2022-08-08T12:51:58.490Z,101362.80
2022-08-08T12:54:33.453Z,101363.60
2022-08-08T12:57:18.028Z,101359.40
2022-08-08T13:00:05.419Z,101356.20
2022-08-08T13:02:51.212Z,101354.40
2022-08-08T13:05:26.888Z,101355.80
2022-08-08T13:08:20.575Z,101348.60
2022-08-08T13:10:56.200Z,101356.60
2022-08-08T13:13:37.737Z,101348.00
2022-08-08T13:16:25.274Z,101345.00
2022-08-08T13:19:06.574Z,101348.00
2022-08-08T13:21:53.668Z,101355.40
2022-08-08T13:24:39.386Z,101350.00
2022-08-08T13:27:15.448Z,101348.00
2022-08-08T13:29:54.479Z,101352.40
2022-08-08T13:32:25.748Z,101354.80
2022-08-08T13:34:58.886Z,101353.20
2022-08-08T13:38:05.489Z,101352.80
2022-08-08T13:40:27.526Z,101349.00
2022-08-08T13:42:57.927Z,101354.40
2022-08-08T13:45:26.482Z,101348.80
2022-08-08T13:48:00.026Z,101347.40
2022-08-08T13:50:35.236Z,101346.00
2022-08-08T13:53:24.790Z,101350.40
2022-08-08T13:56:02.341Z,101350.20
2022-08-08T13:58:30.361Z,101365.00
2022-08-08T14:00:58.323Z,101367.80
2022-08-08T14:03:53.137Z,101367.20
2022-08-08T14:06:32.354Z,101372.00
2022-08-08T14:09:00.671Z,101380.80
2022-08-08T14:11:48.870Z,101375.20
2022-08-08T14:14:20.956Z,101383.00
2022-08-08T14:16:55.531Z,101391.00
2022-08-08T14:19:57.789Z,101389.40
2022-08-08T14:22:26.851Z,101398.00
2022-08-08T14:25:07.735Z,101412.40
2022-08-08T14:27:40.556Z,101408.40
2022-08-08T14:30:18.886Z,101419.80
2022-08-08T14:32:53.459Z,101406.80
2022-08-08T14:35:28.391Z,101398.60
2022-08-08T14:38:51.892Z,101386.20
2022-08-08T14:40:59.549Z,101385.40
2022-08-08T14:44:02.094Z,101379.60
2022-08-08T14:46:32.635Z,101377.80
2022-08-08T14:49:20.553Z,101372.80
2022-08-08T14:52:09.243Z,101362.80
2022-08-08T14:54:47.780Z,101367.00
2022-08-08T14:57:17.195Z,101363.20
2022-08-08T14:59:51.241Z,101364.00
2022-08-08T15:02:25.607Z,101362.60
2022-08-08T15:05:10.857Z,101365.80
2022-08-08T15:07:41.357Z,101362.20
2022-08-08T15:10:16.301Z,101363.80
2022-08-08T15:12:46.607Z,101357.00
2022-08-08T15:15:18.659Z,101349.20
2022-08-08T15:18:04.594Z,101355.60
2022-08-08T15:20:33.430Z,101351.60
2022-08-08T15:23:01.734Z,101353.80
2022-08-08T15:25:33.267Z,101354.60
2022-08-08T15:28:32.485Z,101351.60
2022-08-08T15:30:50.710Z,101345.40
2022-08-08T15:33:35.116Z,101342.40
2022-08-08T15:36:07.203Z,101347.00
2022-08-08T15:38:35.940Z,101348.60
2022-08-08T15:41:08.581Z,101340.20
2022-08-08T15:43:38.041Z,101339.60
2022-08-08T15:46:06.251Z,101337.40
2022-08-08T15:48:34.461Z,101334.80
2022-08-08T15:51:07.193Z,101337.40
2022-08-08T15:53:49.014Z,101339.60
2022-08-08T15:56:19.977Z,101341.40
2022-08-08T15:58:50.288Z,101341.40
2022-08-08T16:01:18.518Z,101344.60
2022-08-08T16:03:51.658Z,101347.00
2022-08-08T16:06:28.282Z,101343.80
2022-08-08T16:09:02.306Z,101342.60
2022-08-08T16:13:02.254Z,101342.60
2022-08-08T16:14:37.215Z,101337.20
2022-08-08T16:17:06.152Z,101339.80
2022-08-08T16:19:56.868Z,101336.40
2022-08-08T16:22:30.041Z,101342.40
2022-08-08T16:24:59.239Z,101342.20
2022-08-08T16:27:35.393Z,101345.20
2022-08-08T16:30:08.754Z,101342.20
2022-08-08T16:32:42.573Z,101341.20
2022-08-08T16:35:10.550Z,101345.00
2022-08-08T16:37:47.412Z,101346.60
2022-08-08T16:40:19.940Z,101340.40
2022-08-08T16:42:51.582Z,101339.00
2022-08-08T16:46:36.541Z,101341.40
2022-08-08T16:48:10.169Z,101343.60
2022-08-08T16:50:41.604Z,101345.80
2022-08-08T16:55:04.692Z,101348.40
2022-08-08T16:56:00.590Z,101357.80
2022-08-08T16:58:34.274Z,101357.00
2022-08-08T17:01:05.978Z,101353.80
2022-08-08T17:04:00.283Z,101357.00
2022-08-08T17:06:37.489Z,101365.80
2022-08-08T17:09:07.642Z,101362.40
2022-08-08T17:11:51.039Z,101363.00
2022-08-08T17:14:33.117Z,101368.20
2022-08-08T17:18:15.996Z,101365.20
2022-08-08T17:20:44.280Z,101365.60
2022-08-08T17:23:17.769Z,101374.40
2022-08-08T17:26:05.274Z,101373.40
2022-08-08T17:28:35.004Z,101373.00
2022-08-08T17:31:39.075Z,101378.60
2022-08-08T17:34:52.857Z,101377.60
2022-08-08T17:37:00.309Z,101382.80
2022-08-08T17:40:03.992Z,101382.20
2022-08-08T17:42:22.057Z,101375.00
2022-08-08T17:44:52.610Z,101382.20
2022-08-08T17:47:37.615Z,101380.60
2022-08-08T17:50:10.751Z,101389.20
2022-08-08T17:52:38.994Z,101394.00
2022-08-08T17:56:05.974Z,101394.60
2022-08-08T17:57:59.903Z,101395.00
2022-08-08T18:00:30.743Z,101397.20
2022-08-08T18:03:08.329Z,101401.80
2022-08-08T18:05:48.588Z,101399.20
2022-08-08T18:08:24.950Z,101400.60
2022-08-08T18:11:17.247Z,101402.80
2022-08-08T18:13:47.261Z,101405.80
2022-08-08T18:16:20.335Z,101404.60
2022-08-08T18:18:57.416Z,101414.60
2022-08-08T18:21:58.876Z,101424.80
2022-08-08T18:24:21.467Z,101423.20
2022-08-08T18:26:54.587Z,101424.80
2022-08-08T18:29:35.419Z,101432.00
2022-08-08T18:32:06.794Z,101435.80
2022-08-08T18:34:37.684Z,101441.20
2022-08-08T18:37:08.336Z,101444.40
2022-08-08T18:39:41.139Z,101446.20
2022-08-08T18:42:16.315Z,101447.00
2022-08-08T18:44:54.914Z,101453.00
2022-08-08T18:47:27.713Z,101453.80
2022-08-08T18:50:00.361Z,101455.80
2022-08-08T18:52:34.642Z,101455.80
2022-08-08T18:55:11.066Z,101455.80
2022-08-08T18:57:45.047Z,101459.00
2022-08-08T19:00:20.444Z,101459.60
2022-08-08T19:02:56.443Z,101463.40
2022-08-08T19:05:31.766Z,101465.80
2022-08-08T19:08:24.510Z,101470.20
2022-08-08T19:10:59.307Z,101466.00
2022-08-08T19:13:53.503Z,101466.00
2022-08-08T19:16:19.093Z,101466.20
2022-08-08T19:19:00.392Z,101467.00
2022-08-08T19:21:47.844Z,101465.60
2022-08-08T19:24:39.326Z,101464.40
2022-08-08T19:27:08.190Z,101468.80
2022-08-08T19:29:40.645Z,101467.80
2022-08-08T19:32:12.969Z,101474.00
2022-08-08T19:34:51.611Z,101474.60
2022-08-08T19:37:43.685Z,101471.80
2022-08-08T19:40:14.458Z,101480.20
2022-08-08T19:42:46.406Z,101476.60
2022-08-08T19:45:59.210Z,101478.20
2022-08-08T19:48:08.002Z,101478.00
2022-08-08T19:50:54.624Z,101484.40
2022-08-08T19:53:51.477Z,101485.20
2022-08-08T19:56:12.664Z,101482.40
2022-08-08T19:58:41.831Z,101488.20
2022-08-08T20:01:17.338Z,101488.60
2022-08-08T20:04:02.062Z,101492.00
2022-08-08T20:06:31.344Z,101492.60
2022-08-08T20:08:59.819Z,101492.20
2022-08-08T20:11:32.500Z,101495.20
2022-08-08T20:14:32.803Z,101495.80
2022-08-08T20:16:53.149Z,101497.00
2022-08-08T20:19:21.844Z,101497.80
2022-08-08T20:21:49.756Z,101499.20
2022-08-08T20:24:18.939Z,101496.80
2022-08-08T20:26:49.466Z,101493.80
2022-08-08T20:29:18.181Z,101496.60
2022-08-08T20:32:08.066Z,101496.60
2022-08-08T20:34:35.126Z,101502.20
2022-08-08T20:37:06.159Z,101497.20
2022-08-08T20:39:41.479Z,101499.40
2022-08-08T20:42:28.494Z,101499.20
2022-08-08T20:44:59.014Z,101499.20
2022-08-08T20:47:35.867Z,101501.40
2022-08-08T20:50:05.936Z,101501.00
2022-08-08T20:52:33.951Z,101498.60
2022-08-08T20:55:01.797Z,101500.40
2022-08-08T20:57:47.503Z,101498.60
2022-08-08T21:00:18.987Z,101501.60
2022-08-08T21:02:52.537Z,101501.40
2022-08-08T21:05:21.487Z,101504.20
2022-08-08T21:08:36.531Z,101501.80
2022-08-08T21:10:40.696Z,101498.00
2022-08-08T21:13:08.939Z,101498.00
2022-08-08T21:16:04.771Z,101497.00
2022-08-08T21:18:24.824Z,101499.20
2022-08-08T21:20:56.001Z,101499.20
2022-08-08T21:23:58.700Z,101488.60
2022-08-08T21:26:12.524Z,101487.40
2022-08-08T21:28:40.421Z,101492.80
2022-08-08T21:31:22.631Z,101493.80
2022-08-08T21:33:54.747Z,101496.60
2022-08-08T21:36:29.365Z,101499.20
2022-08-08T21:38:58.092Z,101497.00
2022-08-08T21:41:38.089Z,101501.80
2022-08-08T21:44:12.096Z,101501.60
2022-08-08T21:48:05.360Z,101502.20
2022-08-08T21:49:30.624Z,101500.80
2022-08-08T21:54:18.943Z,101500.80
2022-08-08T21:55:01.964Z,101503.60
2022-08-08T21:57:41.989Z,101502.20
2022-08-08T22:00:14.219Z,101501.20
2022-08-08T22:02:47.440Z,101501.00
2022-08-08T22:05:15.782Z,101501.60
2022-08-08T22:07:48.924Z,101496.40
2022-08-08T22:10:32.144Z,101502.60
2022-08-08T22:13:17.067Z,101501.80
2022-08-08T22:15:58.336Z,101502.00
2022-08-08T22:18:30.407Z,101502.20
2022-08-08T22:21:13.790Z,101502.40
2022-08-08T22:23:51.201Z,101506.20
2022-08-08T22:26:29.681Z,101499.40
2022-08-08T22:29:14.965Z,101505.20
2022-08-08T22:31:58.611Z,101498.20
2022-08-08T22:34:32.791Z,101500.00
2022-08-08T22:37:00.815Z,101503.80
2022-08-08T22:39:39.177Z,101506.00
2022-08-08T22:42:27.072Z,101501.20
2022-08-08T22:44:56.153Z,101500.40
2022-08-08T22:47:24.548Z,101502.00
2022-08-08T22:50:25.553Z,101503.40
2022-08-08T22:54:28.402Z,101501.60
2022-08-08T22:55:59.752Z,101503.60
2022-08-08T22:58:33.333Z,101504.20
2022-08-08T23:01:26.720Z,101506.80
2022-08-08T23:03:57.001Z,101512.60
2022-08-08T23:06:25.987Z,101510.60
2022-08-08T23:08:58.548Z,101509.20
2022-08-08T23:12:27.743Z,101507.40
2022-08-08T23:14:21.154Z,101511.20
2022-08-08T23:16:57.641Z,101509.80
2022-08-08T23:19:30.822Z,101507.20
2022-08-08T23:22:04.173Z,101509.60
2022-08-08T23:24:41.451Z,101510.40
2022-08-08T23:27:37.535Z,101512.20
2022-08-08T23:30:03.082Z,101514.60
2022-08-08T23:32:33.189Z,101511.20
2022-08-08T23:35:02.242Z,101511.00
2022-08-08T23:37:54.129Z,101514.80
2022-08-08T23:40:23.969Z,101513.60
2022-08-08T23:42:51.923Z,101514.20
2022-08-08T23:49:02.528Z,101506.80
2022-08-08T23:49:04.911Z,101512.40
2022-08-08T23:50:57.463Z,101514.00
2022-08-08T23:53:55.927Z,101506.40
2022-08-08T23:56:14.150Z,101506.40
2022-08-08T23:59:00.507Z,101511.20
